Arimo, ID

6:17 PM MDT on August 01, 2015 (GMT -0600)
ITD | | Change Station
CLOSE
Current Station
Personal Weather Station
Location: McCammon, ID
Elevation: 4719 ft
Nearby Weather Stations
Active Advisory: Fire Weather Watch Active Notice: Record Report

Elev 4719 ft 42.66 °N, 112.21 °W | Updated 47 minutes ago

Clear
Clear
93 °F
Feels Like 88 °F
N
15
Wind Variable Wind from NNW
Gusts 18.0 mph

Today
High -- | Low -- °F
--% Chance of Precip.
Yesterday
High -- | Low -- °F
Precip. -- in
6:20 AM 8:49 PM
Waning Gibbous, 97% visible
Pressure 29.90 in
Visibility 10.0 miles
Clouds Clear
Heat Index 88 °F
Dew Point 27 °F
Humidity 9%
Rainfall in
Snow Depth Not available.
UV 3 out of 12
Pollen 5.80 out of 12
Air Quality Not available.
Flu Activity Not available.
METAR KPIH 012353Z VRB03KT 10SM CLR 36/M04 A3004 RMK AO2 SLP123 T03561039 10361 20294 56021 $

More Conditions Fewer Conditions

Pressure 29.90 in
Visibility 10.0 miles
Clouds Clear
Heat Index 88 °F
Dew Point 27 °F
Humidity 9%
Rainfall in
Snow Depth Not available.
UV 3 out of 12
Pollen 5.80 out of 12
Air Quality Not available.
Flu Activity Not available.
METAR KPIH 012353Z VRB03KT 10SM CLR 36/M04 A3004 RMK AO2 SLP123 T03561039 10361 20294 56021 $

More Conditions Fewer Conditions

10-Day Weather Forecast

×

Almanac

Astronomy

Aug. 01, 2015 Rise Set
Actual Time
Civil Twilight
Nautical Twilight
Astronomical Twilight
Moon
Length of Visible Light
Length of Day
Tomorrow will be .
, % of the Moon is Illuminated

Today's Extremes

State Highs State Lows

Community

WunderPhotos

Upload Photos

1,843,102 photos uploaded!

WunderBlogs® & News

Nearby

Air Quality

  Air Quality AQ Index Pollutant
Not available.

Snow Depth

Station Depth Elevation

Earthquake Activity

City Distance Mag. Time & Date
Minimum magnitude displayed is 2.5.

Coastal Water Temperatures

Place Temperature

Stations

Nearby Weather Stations

Station Location Temp. Windchill Dew Point Humidity Wind Precip. Elev Updated Type
                   
Fire Weather Watch
Statement as of 2:10 PM MDT on August 01, 2015

... Fire Weather Watch in effect from Monday morning through
Monday evening for thunderstorms and gusty outflow winds for
southeast Idaho fire weather zone 413 below 5000ft...

The National Weather Service in Pocatello has issued a Fire
Weather Watch... which is in effect from Monday morning through
Monday evening.

* Affected area... fire weather zone 413 below 5000ft.

* Wind... gusts over 30 mph possible.

* Thunderstorms... scattered or greater coverage.

* Initially... storms will be dry. However... they will transition
to mostly wet by late in the evening with gusty winds still a
potential risk.

* Impacts... any fires that develop will likely spread rapidly.
Outdoor burning is not recommended.

Precautionary/preparedness actions...

A Fire Weather Watch means that critical fire weather conditions
are forecast to occur. Listen for later forecasts and possible
red flag warnings.